Time;durP1;ratioP1;P1;durP2;ratioP2;P2;SDS_P1;SDS_P2;PMS_P1;PMS_P2;Temp;Humidity;BMP_temperature;BMP_pressure;BME280_temperature;BME280_humidity;BME280_pressure;Samples;Min_cycle;Max_cycle;Signal;HPM_P1;HPM_P2
2022/01/03 00:00:24;;;;;;;5.73;2.23;;;13.20;74.60;;;;;;4978226;28;20669;-88
2022/01/03 00:02:56;;;;;;;6.37;2.20;;;13.20;74.10;;;;;;4980951;28;20196;-88
2022/01/03 00:05:22;;;;;;;5.20;2.10;;;13.20;74.60;;;;;;4979902;28;20595;-87
2022/01/03 00:07:48;;;;;;;4.77;2.00;;;13.20;74.00;;;;;;4978707;28;20279;-87
2022/01/03 00:10:16;;;;;;;8.60;2.20;;;13.20;73.80;;;;;;4980172;28;20226;-87
2022/01/03 00:12:42;;;;;;;4.87;2.20;;;13.20;74.00;;;;;;4977718;28;20203;-88
2022/01/03 00:15:11;;;;;;;3.60;2.03;;;13.20;73.60;;;;;;4981224;28;20559;-87
2022/01/03 00:17:37;;;;;;;5.37;2.23;;;13.20;74.00;;;;;;4980648;28;20202;-87
2022/01/03 00:20:05;;;;;;;3.70;2.93;;;13.20;74.40;;;;;;4979160;28;20211;-88
2022/01/03 00:22:39;;;;;;;6.37;2.50;;;13.10;74.50;;;;;;4980564;28;20187;-88
2022/01/03 00:25:16;;;;;;;4.20;2.20;;;13.10;73.80;;;;;;4978025;28;20215;-87
2022/01/03 00:28:11;;;;;;;3.37;2.17;;;13.10;74.30;;;;;;4979364;28;20196;-87
2022/01/03 00:30:38;;;;;;;5.97;2.90;;;13.10;74.20;;;;;;4975390;28;20215;-88
2022/01/03 00:33:05;;;;;;;4.20;2.60;;;13.10;74.00;;;;;;4980696;28;20623;-88
2022/01/03 00:35:33;;;;;;;3.27;2.20;;;13.10;73.90;;;;;;4979723;28;20210;-89
2022/01/03 00:38:00;;;;;;;6.00;2.40;;;13.10;74.00;;;;;;4977121;28;20275;-88
2022/01/03 00:40:28;;;;;;;7.17;2.80;;;13.20;73.60;;;;;;4965937;28;20227;-87
2022/01/03 00:42:54;;;;;;;4.80;2.03;;;13.20;73.20;;;;;;4983722;28;20187;-88
2022/01/03 00:45:20;;;;;;;5.97;2.37;;;13.20;72.20;;;;;;4974144;28;20459;-88
2022/01/03 00:47:47;;;;;;;4.97;2.00;;;13.20;73.20;;;;;;4972663;28;20701;-88
2022/01/03 00:50:15;;;;;;;5.23;2.47;;;13.00;73.70;;;;;;4972019;28;20208;-87
2022/01/03 00:52:41;;;;;;;6.10;2.13;;;13.00;74.40;;;;;;4973144;28;20188;-88
2022/01/03 00:55:07;;;;;;;5.70;2.47;;;13.10;73.50;;;;;;4972243;28;20196;-87
2022/01/03 00:57:45;;;;;;;4.13;2.60;;;13.10;73.80;;;;;;4975558;28;20192;-87
2022/01/03 01:00:11;;;;;;;7.50;2.30;;;13.10;73.70;;;;;;4973103;28;20707;-87
2022/01/03 01:02:38;;;;;;;4.60;2.10;;;13.10;73.70;;;;;;4969825;28;20191;-88
2022/01/03 01:05:06;;;;;;;7.33;2.67;;;13.10;74.40;;;;;;4970739;28;20347;-88
2022/01/03 01:07:33;;;;;;;4.83;2.23;;;13.10;74.30;;;;;;4974315;28;20223;-88
2022/01/03 01:10:06;;;;;;;5.70;2.33;;;13.20;72.80;;;;;;4972594;28;20209;-87
2022/01/03 01:12:32;;;;;;;5.03;2.10;;;13.20;73.00;;;;;;4968919;28;20192;-87
2022/01/03 01:14:58;;;;;;;4.40;2.53;;;13.20;73.30;;;;;;4973028;28;20191;-87
2022/01/03 01:17:27;;;;;;;5.47;2.30;;;13.20;73.30;;;;;;4972637;28;20190;-87
2022/01/03 01:19:54;;;;;;;7.37;2.70;;;13.20;73.70;;;;;;4971008;28;20215;-88
2022/01/03 01:22:21;;;;;;;8.27;2.77;;;13.10;73.60;;;;;;4974208;28;20275;-87
2022/01/03 01:24:58;;;;;;;3.60;2.00;;;13.10;74.30;;;;;;4973012;28;20196;-87
2022/01/03 01:30:10;;;;;;;5.30;2.40;;;13.10;73.90;;;;;;4963494;28;20732;-87
2022/01/03 01:32:42;;;;;;;5.13;2.47;;;13.10;73.90;;;;;;4969000;28;20219;-87
2022/01/03 01:35:08;;;;;;;6.63;2.47;;;13.20;72.40;;;;;;4960235;28;20279;-87
2022/01/03 01:37:35;;;;;;;7.30;2.47;;;13.10;73.10;;;;;;4973808;28;20205;-88
2022/01/03 01:40:02;;;;;;;5.83;2.63;;;13.10;73.90;;;;;;4970347;28;20603;-88
2022/01/03 01:42:30;;;;;;;5.87;2.50;;;13.00;73.90;;;;;;4972422;28;20335;-87
2022/01/03 01:44:59;;;;;;;6.23;2.87;;;13.00;74.00;;;;;;4955655;28;20312;-87
2022/01/03 01:47:27;;;;;;;4.33;2.33;;;13.10;73.80;;;;;;4973312;28;20214;-87
2022/01/03 01:49:55;;;;;;;5.93;2.37;;;13.00;74.40;;;;;;4971467;28;20218;-87
2022/01/03 01:52:25;;;;;;;7.10;2.33;;;13.00;74.30;;;;;;4970825;28;20559;-87
2022/01/03 01:54:56;;;;;;;4.80;2.20;;;12.90;74.70;;;;;;4972006;28;20550;-87
2022/01/03 01:57:30;;;;;;;5.83;3.10;;;13.00;74.70;;;;;;4972787;28;20204;-88
2022/01/03 02:00:04;;;;;;;3.97;2.20;;;13.00;75.00;;;;;;4972348;28;20230;-87
2022/01/03 02:02:44;;;;;;;7.27;2.37;;;12.90;74.90;;;;;;4970413;28;20190;-90
2022/01/03 02:05:29;;;;;;;3.83;2.17;;;13.00;74.50;;;;;;4968530;28;20279;-87
2022/01/03 02:08:01;;;;;;;5.43;2.60;;;13.00;74.60;;;;;;4967916;28;20192;-87
2022/01/03 02:10:34;;;;;;;5.83;2.50;;;13.10;74.10;;;;;;4972745;28;20617;-87
2022/01/03 02:13:01;;;;;;;9.27;2.40;;;13.10;74.60;;;;;;4968730;28;20195;-87
2022/01/03 02:15:27;;;;;;;5.50;2.10;;;12.90;75.30;;;;;;4972874;28;20182;-88
2022/01/03 02:17:53;;;;;;;7.77;2.63;;;12.90;74.70;;;;;;4986256;28;20183;-86
2022/01/03 02:20:30;;;;;;;6.33;2.40;;;12.90;74.40;;;;;;4988879;28;20592;-89
2022/01/03 02:22:56;;;;;;;4.40;2.37;;;12.90;74.60;;;;;;4971791;28;20207;-88
2022/01/03 02:25:24;;;;;;;4.70;2.17;;;13.00;74.60;;;;;;4972274;28;20233;-86
2022/01/03 02:27:51;;;;;;;6.83;2.87;;;12.80;74.70;;;;;;4995293;28;20231;-86
2022/01/03 02:30:28;;;;;;;7.17;2.67;;;12.80;74.60;;;;;;4986527;28;20582;-87
2022/01/03 02:32:54;;;;;;;6.57;2.83;;;12.80;74.90;;;;;;4969210;28;20206;-87
2022/01/03 02:35:20;;;;;;;9.83;2.40;;;12.70;76.00;;;;;;4971898;28;20210;-86
2022/01/03 02:37:47;;;;;;;6.93;2.70;;;12.70;75.50;;;;;;4970042;28;20203;-87
2022/01/03 02:40:14;;;;;;;3.47;2.10;;;12.70;75.70;;;;;;4967048;28;20318;-87
2022/01/03 02:42:40;;;;;;;4.53;2.10;;;12.70;74.60;;;;;;4971376;28;20202;-88
2022/01/03 02:45:08;;;;;;;5.33;2.93;;;12.80;74.90;;;;;;4971672;28;20187;-87
2022/01/03 02:47:35;;;;;;;7.83;2.70;;;12.80;75.60;;;;;;4967103;28;20247;-87
2022/01/03 02:50:01;;;;;;;7.33;2.30;;;12.70;75.60;;;;;;4967601;28;20234;-88
2022/01/03 02:52:26;;;;;;;5.30;2.50;;;12.70;75.90;;;;;;4970147;28;20579;-87
2022/01/03 02:54:52;;;;;;;5.03;2.10;;;12.70;75.80;;;;;;4970040;28;20222;-87
2022/01/03 02:57:25;;;;;;;9.00;2.80;;;12.70;76.30;;;;;;4971272;28;20253;-87
2022/01/03 02:59:55;;;;;;;9.87;2.87;;;12.60;76.70;;;;;;4971286;28;20223;-88
2022/01/03 03:02:23;;;;;;;8.60;2.47;;;12.60;76.90;;;;;;4971269;28;20188;-88
2022/01/03 03:05:09;;;;;;;8.80;2.80;;;12.50;77.90;;;;;;4970946;28;20196;-88
2022/01/03 03:07:35;;;;;;;6.33;2.60;;;12.40;77.90;;;;;;4969036;28;20290;-88
2022/01/03 03:10:05;;;;;;;6.07;2.63;;;12.50;77.70;;;;;;4969048;28;20219;-88
2022/01/03 03:12:31;;;;;;;6.13;2.43;;;12.60;77.00;;;;;;4972106;28;20199;-87
2022/01/03 03:14:56;;;;;;;10.07;3.07;;;12.50;77.90;;;;;;4969324;28;20203;-87
2022/01/03 03:17:22;;;;;;;5.97;2.57;;;12.50;77.80;;;;;;4970731;28;20230;-88
2022/01/03 03:19:54;;;;;;;8.10;2.80;;;12.50;77.40;;;;;;4954749;28;20631;-87
2022/01/03 03:22:20;;;;;;;6.77;3.00;;;12.50;77.30;;;;;;4968838;28;20224;-87
2022/01/03 03:24:46;;;;;;;8.17;2.63;;;12.50;77.60;;;;;;4970896;28;20194;-88
2022/01/03 03:27:12;;;;;;;7.07;2.60;;;12.50;77.20;;;;;;4969302;28;20211;-87
2022/01/03 03:29:57;;;;;;;7.23;2.60;;;12.50;77.20;;;;;;4971446;28;20216;-88
2022/01/03 03:32:24;;;;;;;5.10;2.90;;;12.40;77.20;;;;;;4968468;28;20221;-88
2022/01/03 03:34:49;;;;;;;6.40;2.80;;;12.40;77.70;;;;;;4970417;28;20569;-87
2022/01/03 03:37:16;;;;;;;8.10;3.63;;;12.30;78.60;;;;;;4972293;28;20255;-88
2022/01/03 03:39:43;;;;;;;6.13;2.70;;;12.20;78.80;;;;;;4962548;28;20250;-87
2022/01/03 03:42:11;;;;;;;8.60;2.67;;;12.30;77.70;;;;;;4971245;28;20192;-87
2022/01/03 03:44:37;;;;;;;7.70;2.90;;;12.30;77.30;;;;;;4970268;28;20665;-87
2022/01/03 03:47:04;;;;;;;7.50;2.70;;;12.30;77.60;;;;;;4970806;28;20278;-87
2022/01/03 03:49:31;;;;;;;3.77;3.10;;;12.20;77.50;;;;;;4967075;28;20195;-88
2022/01/03 03:51:58;;;;;;;4.27;2.37;;;12.30;77.30;;;;;;4969478;28;20199;-88
2022/01/03 03:54:24;;;;;;;6.90;2.50;;;12.20;77.50;;;;;;4968534;28;20199;-88
2022/01/03 03:56:50;;;;;;;9.50;3.00;;;12.20;77.30;;;;;;4970756;28;20210;-88
2022/01/03 03:59:15;;;;;;;9.50;3.37;;;12.20;78.00;;;;;;4969663;28;20570;-87
2022/01/03 04:01:41;;;;;;;7.13;2.67;;;12.10;78.70;;;;;;4969702;28;20333;-87
2022/01/03 04:04:07;;;;;;;6.43;2.73;;;12.20;78.70;;;;;;4966791;28;20253;-87
2022/01/03 04:06:33;;;;;;;5.97;2.47;;;12.20;79.30;;;;;;4971813;28;20199;-87
2022/01/03 04:08:59;;;;;;;4.00;2.73;;;12.10;79.40;;;;;;4971060;28;20211;-87
2022/01/03 04:11:25;;;;;;;6.20;2.33;;;12.10;79.60;;;;;;4970389;28;20614;-87
2022/01/03 04:13:50;;;;;;;3.93;2.33;;;12.10;78.80;;;;;;4967573;28;20230;-87
2022/01/03 04:16:16;;;;;;;8.30;2.30;;;12.00;79.60;;;;;;4973079;28;20223;-87
2022/01/03 04:18:42;;;;;;;3.77;1.90;;;11.80;82.00;;;;;;4974581;28;20195;-87
2022/01/03 04:21:08;;;;;;;3.77;2.17;;;11.60;86.90;;;;;;4971715;28;20269;-87
2022/01/03 04:23:34;;;;;;;5.63;2.00;;;11.40;90.20;;;;;;4970738;28;20250;-86
2022/01/03 04:26:00;;;;;;;4.40;2.10;;;11.20;93.20;;;;;;4974551;28;20191;-86
2022/01/03 04:28:25;;;;;;;6.30;2.10;;;11.10;96.50;;;;;;4969815;28;20195;-86
2022/01/03 04:30:51;;;;;;;6.20;2.80;;;10.90;99.20;;;;;;4973021;28;20214;-85
2022/01/03 04:33:17;;;;;;;5.93;2.40;;;10.90;98.90;;;;;;4971814;28;20205;-86
2022/01/03 04:35:43;;;;;;;6.30;2.40;;;10.80;99.90;;;;;;4971607;28;20501;-86
2022/01/03 04:38:08;;;;;;;7.53;1.80;;;10.70;99.90;;;;;;4972396;28;20281;-86
2022/01/03 04:40:34;;;;;;;4.43;2.10;;;10.70;99.90;;;;;;4973292;28;20222;-86
2022/01/03 04:43:00;;;;;;;8.17;2.20;;;10.60;99.90;;;;;;4974302;28;20198;-86
2022/01/03 04:45:25;;;;;;;2.37;1.90;;;10.60;99.90;;;;;;4968991;28;20566;-86
2022/01/03 04:47:51;;;;;;;4.87;2.50;;;10.60;99.90;;;;;;4974366;28;20669;-86
2022/01/03 04:50:17;;;;;;;4.50;2.00;;;10.50;99.90;;;;;;4972812;28;20339;-86
2022/01/03 04:52:42;;;;;;;6.07;2.27;;;10.60;99.90;;;;;;4973831;28;20199;-86
2022/01/03 04:55:09;;;;;;;6.57;2.33;;;10.70;99.90;;;;;;4972237;28;20195;-86
2022/01/03 04:57:35;;;;;;;5.20;2.50;;;10.60;99.90;;;;;;4972054;28;20670;-86
2022/01/03 05:00:01;;;;;;;5.40;2.40;;;10.60;99.90;;;;;;4972180;28;20222;-86
2022/01/03 05:02:27;;;;;;;10.27;2.43;;;10.60;99.90;;;;;;4967309;28;20232;-85
2022/01/03 05:04:52;;;;;;;10.00;3.17;;;10.60;99.90;;;;;;4986967;28;20210;-85
2022/01/03 05:07:18;;;;;;;8.30;3.00;;;10.60;99.90;;;;;;4989327;28;20202;-86
2022/01/03 05:09:44;;;;;;;8.07;2.80;;;10.60;99.90;;;;;;4972012;28;20821;-86
2022/01/03 05:12:11;;;;;;;4.20;2.73;;;10.60;99.90;;;;;;4974592;28;20205;-86
2022/01/03 05:14:36;;;;;;;12.43;3.13;;;10.60;99.90;;;;;;4993639;28;20186;-85
2022/01/03 05:17:02;;;;;;;8.87;2.93;;;10.70;99.90;;;;;;4993219;28;20266;-86
2022/01/03 05:19:28;;;;;;;6.10;2.60;;;10.70;99.90;;;;;;4972051;28;20782;-86
2022/01/03 05:21:54;;;;;;;6.00;2.53;;;10.80;99.00;;;;;;4972896;28;20187;-86
2022/01/03 05:24:19;;;;;;;6.07;2.57;;;10.90;97.10;;;;;;4970440;28;20297;-86
2022/01/03 05:26:45;;;;;;;7.83;2.40;;;11.00;97.10;;;;;;4969372;28;20184;-86
2022/01/03 05:29:11;;;;;;;7.13;2.60;;;10.90;97.70;;;;;;4970690;28;20194;-86
2022/01/03 05:31:36;;;;;;;8.40;2.57;;;10.90;97.80;;;;;;4970790;28;20710;-86
2022/01/03 05:34:02;;;;;;;8.10;3.13;;;10.90;97.80;;;;;;4971894;28;20657;-87
2022/01/03 05:36:28;;;;;;;8.73;3.13;;;10.80;98.70;;;;;;4971728;28;20191;-86
2022/01/03 05:38:54;;;;;;;7.17;2.93;;;10.80;99.00;;;;;;4973454;28;20186;-87
2022/01/03 05:41:21;;;;;;;7.10;2.53;;;10.70;98.90;;;;;;4972775;28;20219;-86
2022/01/03 05:43:49;;;;;;;7.03;2.90;;;10.80;99.10;;;;;;4972695;28;20282;-85
2022/01/03 05:46:14;;;;;;;8.47;2.87;;;10.80;98.80;;;;;;4974018;28;20190;-86
2022/01/03 05:48:41;;;;;;;8.40;2.90;;;10.80;99.00;;;;;;4971956;28;20191;-86
2022/01/03 05:51:06;;;;;;;8.13;2.60;;;10.90;99.60;;;;;;4971673;28;20223;-86
2022/01/03 05:53:32;;;;;;;5.30;2.60;;;10.90;99.90;;;;;;4973615;28;20570;-86
2022/01/03 05:56:00;;;;;;;8.27;2.80;;;10.90;99.90;;;;;;4973800;28;20576;-86
2022/01/03 05:58:27;;;;;;;8.20;2.70;;;10.90;99.90;;;;;;4972503;28;20205;-86
2022/01/03 06:00:53;;;;;;;9.37;3.17;;;10.90;99.90;;;;;;4972202;28;20226;-86
2022/01/03 06:03:22;;;;;;;7.13;2.90;;;10.80;99.90;;;;;;4965807;28;20199;-86
2022/01/03 06:08:23;;;;;;;7.03;2.93;;;10.80;99.90;;;;;;4969841;28;20182;-86
2022/01/03 06:10:48;;;;;;;9.47;5.07;;;10.80;99.60;;;;;;4966331;28;20230;-86
2022/01/03 06:13:15;;;;;;;16.47;12.97;;;10.80;98.90;;;;;;4969541;28;20297;-86
2022/01/03 06:15:41;;;;;;;9.27;3.27;;;10.90;98.10;;;;;;4969319;28;20206;-86
2022/01/03 06:18:15;;;;;;;8.83;3.03;;;11.00;97.40;;;;;;4973311;28;20195;-86
2022/01/03 06:20:43;;;;;;;8.83;2.97;;;11.00;97.20;;;;;;4981704;28;20246;-87
2022/01/03 06:23:10;;;;;;;7.73;3.60;;;10.90;97.50;;;;;;4975325;28;20666;-86
2022/01/03 06:25:37;;;;;;;7.33;2.93;;;11.00;97.40;;;;;;4973822;28;20254;-86
2022/01/03 06:28:07;;;;;;;5.97;3.40;;;11.00;97.20;;;;;;4973837;28;20195;-87
2022/01/03 06:30:43;;;;;;;5.57;2.53;;;11.00;96.90;;;;;;4971269;28;20214;-86
2022/01/03 06:33:10;;;;;;;7.93;3.00;;;11.10;96.20;;;;;;4974850;28;20194;-87
2022/01/03 06:35:36;;;;;;;8.77;3.07;;;11.10;96.50;;;;;;4966192;28;20198;-87
2022/01/03 06:38:05;;;;;;;11.20;2.90;;;11.00;96.40;;;;;;4970937;28;20191;-87
2022/01/03 06:40:31;;;;;;;12.27;4.93;;;11.10;96.10;;;;;;4967294;28;20230;-86
2022/01/03 06:42:56;;;;;;;8.57;2.70;;;11.10;95.80;;;;;;4971593;28;20198;-87
2022/01/03 06:45:22;;;;;;;6.60;2.60;;;11.10;95.60;;;;;;4966954;28;20213;-87
2022/01/03 06:47:50;;;;;;;8.83;3.83;;;11.10;95.20;;;;;;4963235;28;20685;-87
2022/01/03 06:50:16;;;;;;;9.87;2.90;;;11.10;95.30;;;;;;4969983;28;20218;-87
2022/01/03 06:52:43;;;;;;;8.13;2.73;;;11.10;94.70;;;;;;4969694;28;20215;-86
2022/01/03 06:55:09;;;;;;;7.47;2.60;;;11.10;95.00;;;;;;4971524;28;20234;-87
2022/01/03 06:57:34;;;;;;;6.80;2.70;;;11.10;95.10;;;;;;4969168;28;20677;-87
2022/01/03 07:00:00;;;;;;;10.40;2.70;;;11.10;95.00;;;;;;4970933;28;20226;-87
2022/01/03 07:02:26;;;;;;;9.57;3.00;;;11.10;95.10;;;;;;4972410;28;20649;-86
2022/01/03 07:04:51;;;;;;;8.97;3.10;;;11.10;95.40;;;;;;4971842;28;20198;-87
2022/01/03 07:07:17;;;;;;;12.80;4.33;;;11.00;95.50;;;;;;4950847;28;20191;-87
2022/01/03 07:09:43;;;;;;;6.53;2.90;;;11.00;96.00;;;;;;4969565;28;20222;-86
2022/01/03 07:12:10;;;;;;;9.70;3.03;;;10.90;96.70;;;;;;4972271;28;20218;-87
2022/01/03 07:19:53;;;;;;;7.60;3.00;;;10.90;99.90;;;;;;4972414;28;20537;-87
2022/01/03 07:22:19;;;;;;;11.43;3.73;;;10.70;99.90;;;;;;4971046;28;20285;-88
2022/01/03 07:24:45;;;;;;;8.50;2.80;;;10.70;99.90;;;;;;4956462;28;20636;-88
2022/01/03 07:27:12;;;;;;;11.77;2.70;;;10.70;99.90;;;;;;4988314;28;20183;-88
2022/01/03 07:29:39;;;;;;;5.83;2.60;;;10.60;99.90;;;;;;4968550;28;20238;-88
2022/01/03 07:32:05;;;;;;;7.20;3.10;;;10.50;99.90;;;;;;4970014;28;20278;-87
2022/01/03 07:34:31;;;;;;;8.40;2.90;;;10.40;99.90;;;;;;4967522;28;20207;-87
2022/01/03 07:36:57;;;;;;;7.53;2.73;;;10.40;99.90;;;;;;4971724;28;20201;-87
2022/01/03 07:39:23;;;;;;;7.07;3.27;;;10.40;99.90;;;;;;4967220;28;20237;-85
2022/01/03 07:41:48;;;;;;;9.30;3.37;;;10.40;99.90;;;;;;4968815;28;20196;-86
2022/01/03 07:44:14;;;;;;;9.03;3.20;;;10.40;99.90;;;;;;4970989;28;20773;-88
2022/01/03 07:46:40;;;;;;;10.30;3.33;;;10.50;99.90;;;;;;4971775;28;20273;-88
2022/01/03 07:49:05;;;;;;;9.13;4.33;;;10.50;99.90;;;;;;4975732;28;20290;-89
2022/01/03 07:51:31;;;;;;;4.50;2.67;;;10.40;99.90;;;;;;4984471;28;20265;-84
2022/01/03 07:53:58;;;;;;;8.20;3.10;;;10.20;99.90;;;;;;4991400;28;20197;-86
2022/01/03 07:56:23;;;;;;;10.97;3.50;;;10.20;99.90;;;;;;4972850;28;20277;-86
2022/01/03 07:58:49;;;;;;;7.77;3.53;;;10.40;99.90;;;;;;4982225;28;20198;-88
2022/01/03 08:01:15;;;;;;;10.17;3.33;;;10.40;99.90;;;;;;4995642;28;20318;-86
2022/01/03 08:03:41;;;;;;;13.07;4.20;;;10.30;99.90;;;;;;5000945;28;20266;-87
2022/01/03 08:06:08;;;;;;;9.57;3.77;;;10.20;99.90;;;;;;4987665;28;20269;-87
2022/01/03 08:08:38;;;;;;;10.00;3.60;;;10.20;99.90;;;;;;4986592;28;20222;-88
2022/01/03 08:11:04;;;;;;;6.40;3.23;;;10.20;99.90;;;;;;4990560;28;20217;-87
2022/01/03 08:13:31;;;;;;;13.60;3.77;;;10.30;99.90;;;;;;4988028;28;20266;-88
2022/01/03 08:15:56;;;;;;;10.00;2.90;;;10.20;99.90;;;;;;4986385;28;20194;-88
2022/01/03 08:18:22;;;;;;;9.20;3.23;;;10.20;99.90;;;;;;4982412;28;20195;-88
2022/01/03 08:20:50;;;;;;;9.80;2.90;;;10.20;99.90;;;;;;4984013;28;20222;-88
2022/01/03 08:23:15;;;;;;;9.73;3.37;;;10.30;99.90;;;;;;4984978;28;20278;-88
2022/01/03 08:25:41;;;;;;;6.80;2.90;;;10.50;99.90;;;;;;4984412;28;20218;-87
2022/01/03 08:28:08;;;;;;;9.07;3.07;;;10.50;99.90;;;;;;4983979;28;20657;-87
2022/01/03 08:30:34;;;;;;;8.80;3.00;;;10.50;99.90;;;;;;4977783;28;20215;-88
2022/01/03 08:33:01;;;;;;;11.40;3.50;;;10.40;99.90;;;;;;4987107;28;20219;-88
2022/01/03 08:35:27;;;;;;;7.13;3.00;;;10.40;99.90;;;;;;4986249;28;20221;-87
2022/01/03 08:37:53;;;;;;;7.73;3.70;;;10.40;99.90;;;;;;4984148;28;20285;-88
2022/01/03 08:40:19;;;;;;;7.63;3.03;;;10.50;99.90;;;;;;4985411;28;20233;-88
2022/01/03 08:42:45;;;;;;;8.67;3.20;;;10.60;99.90;;;;;;4969990;28;20195;-88
2022/01/03 08:45:11;;;;;;;15.43;5.13;;;10.70;99.70;;;;;;4985910;28;20214;-88
2022/01/03 08:47:37;;;;;;;8.60;3.33;;;10.70;99.20;;;;;;4986810;28;20195;-87
2022/01/03 08:50:05;;;;;;;10.20;3.40;;;10.70;98.80;;;;;;4983043;28;20211;-88
2022/01/03 08:52:31;;;;;;;6.33;2.80;;;10.70;99.10;;;;;;4982618;28;20202;-88
2022/01/03 08:54:57;;;;;;;6.60;3.27;;;10.80;98.10;;;;;;4959759;28;20693;-87
2022/01/03 08:57:23;;;;;;;7.80;3.10;;;10.90;98.20;;;;;;4982634;28;20190;-88
2022/01/03 08:59:50;;;;;;;7.20;2.83;;;10.80;98.40;;;;;;4980883;28;20229;-88
2022/01/03 09:02:16;;;;;;;10.10;3.00;;;10.80;98.00;;;;;;4981363;28;20694;-88
2022/01/03 09:04:43;;;;;;;6.80;2.57;;;10.80;98.20;;;;;;4980886;28;20207;-87
2022/01/03 09:07:09;;;;;;;7.33;3.33;;;10.80;98.00;;;;;;4980052;28;20180;-87
2022/01/03 09:09:35;;;;;;;9.63;3.50;;;10.80;97.70;;;;;;4975843;28;20222;-88
2022/01/03 09:12:03;;;;;;;6.53;3.00;;;10.80;97.50;;;;;;4980151;28;20275;-88
2022/01/03 09:14:29;;;;;;;8.90;3.00;;;10.80;97.20;;;;;;4980098;28;20191;-87
2022/01/03 09:16:54;;;;;;;9.60;3.17;;;10.80;96.40;;;;;;4980851;28;20735;-88
2022/01/03 09:19:20;;;;;;;8.80;3.20;;;11.00;96.50;;;;;;4978126;28;20210;-87
2022/01/03 09:21:46;;;;;;;8.50;3.10;;;10.90;97.10;;;;;;4960701;28;20196;-87
2022/01/03 09:29:35;;;;;;;7.73;2.97;;;11.10;94.80;;;;;;4979758;28;20721;-88
2022/01/03 09:32:00;;;;;;;6.90;3.27;;;11.10;93.90;;;;;;4978950;28;20247;-87
2022/01/03 09:34:26;;;;;;;6.90;2.40;;;11.10;93.80;;;;;;4975530;28;20211;-87
2022/01/03 09:36:52;;;;;;;6.77;2.47;;;11.30;92.20;;;;;;4988174;28;20203;-88
2022/01/03 09:39:18;;;;;;;9.20;3.07;;;11.20;93.50;;;;;;4979897;28;20539;-87
2022/01/03 09:42:01;;;;;;;7.67;3.00;;;11.20;92.60;;;;;;4979774;28;20275;-88
2022/01/03 09:44:32;;;;;;;7.33;2.80;;;11.30;92.60;;;;;;4980549;28;20180;-88
2022/01/03 09:47:04;;;;;;;7.67;2.93;;;11.20;93.40;;;;;;4981028;28;20202;-87
2022/01/03 09:49:35;;;;;;;4.60;2.50;;;11.20;92.60;;;;;;4984459;28;20470;-88
2022/01/03 09:52:06;;;;;;;7.23;2.80;;;11.20;92.50;;;;;;4981720;28;20222;-87
2022/01/03 09:54:32;;;;;;;6.10;2.60;;;11.20;91.80;;;;;;4978902;28;20195;-87
2022/01/03 09:57:04;;;;;;;10.13;3.13;;;11.30;92.20;;;;;;4979641;28;20223;-88
2022/01/03 09:59:31;;;;;;;5.57;2.43;;;11.40;92.10;;;;;;4982469;28;20218;-88
2022/01/03 10:01:58;;;;;;;7.40;2.67;;;11.30;93.50;;;;;;4982038;28;20195;-88
2022/01/03 10:04:24;;;;;;;6.87;3.13;;;11.30;93.90;;;;;;4983157;28;20192;-88
2022/01/03 10:06:50;;;;;;;7.67;2.80;;;11.40;93.40;;;;;;4980286;28;20218;-88
2022/01/03 10:09:18;;;;;;;6.60;2.80;;;11.40;93.30;;;;;;4983176;28;20243;-87
2022/01/03 10:11:44;;;;;;;8.47;3.10;;;11.40;92.90;;;;;;4981516;28;20194;-87
2022/01/03 10:14:11;;;;;;;6.83;2.90;;;11.40;92.70;;;;;;4978744;28;20190;-87
2022/01/03 10:16:38;;;;;;;6.40;3.30;;;11.30;93.30;;;;;;4982191;28;20189;-87
2022/01/03 10:19:05;;;;;;;8.67;3.13;;;11.30;94.70;;;;;;4979142;28;20192;-87
2022/01/03 10:21:57;;;;;;;10.97;3.27;;;11.30;94.40;;;;;;4979353;28;20871;-87
2022/01/03 10:24:36;;;;;;;7.23;2.57;;;11.30;93.80;;;;;;4977462;28;20207;-87
2022/01/03 10:27:03;;;;;;;5.07;3.20;;;11.20;94.00;;;;;;4981905;28;20196;-87
2022/01/03 10:29:33;;;;;;;10.67;3.20;;;11.20;93.50;;;;;;4979635;28;20199;-87
2022/01/03 10:32:01;;;;;;;4.27;2.50;;;11.40;94.10;;;;;;4980081;28;20192;-87
2022/01/03 10:34:27;;;;;;;9.97;3.00;;;11.40;93.40;;;;;;4982512;28;20238;-87
2022/01/03 10:36:55;;;;;;;6.90;2.53;;;11.50;91.90;;;;;;4981355;28;20215;-87
2022/01/03 10:39:28;;;;;;;8.53;2.73;;;11.50;92.70;;;;;;4979802;28;20275;-86
2022/01/03 10:42:11;;;;;;;6.33;2.20;;;11.60;91.50;;;;;;4993837;28;20235;-86
2022/01/03 10:44:40;;;;;;;6.20;2.40;;;11.60;90.80;;;;;;4982868;28;20254;-88
2022/01/03 10:47:13;;;;;;;5.90;2.47;;;11.60;91.40;;;;;;4986697;28;20650;-87
2022/01/03 10:49:41;;;;;;;6.67;2.60;;;11.60;91.40;;;;;;4991794;28;20191;-86
2022/01/03 10:52:20;;;;;;;3.80;2.30;;;11.60;91.90;;;;;;4995786;28;20171;-86
2022/01/03 10:55:11;;;;;;;6.97;3.03;;;11.70;91.70;;;;;;4982594;28;20215;-88
2022/01/03 10:57:55;;;;;;;6.23;2.70;;;11.60;93.10;;;;;;4978314;28;20209;-88
2022/01/03 11:00:24;;;;;;;8.17;2.63;;;11.50;93.40;;;;;;4994557;28;20873;-87
2022/01/03 11:03:29;;;;;;;7.20;3.17;;;11.60;92.20;;;;;;4979668;28;20335;-87
2022/01/03 11:06:02;;;;;;;6.93;2.43;;;11.50;93.50;;;;;;4981799;28;20185;-87
2022/01/03 11:11:15;;;;;;;7.40;2.60;;;11.60;92.10;;;;;;4979070;28;20225;-87
2022/01/03 11:13:47;;;;;;;6.30;2.37;;;11.70;92.40;;;;;;4978560;28;20210;-87
2022/01/03 11:16:13;;;;;;;5.20;2.33;;;11.60;93.00;;;;;;4978957;28;20286;-87
2022/01/03 11:18:44;;;;;;;6.87;2.80;;;11.50;94.40;;;;;;4978229;28;20214;-87
2022/01/03 11:21:13;;;;;;;5.40;2.47;;;11.50;94.40;;;;;;4978685;28;21287;-88
2022/01/03 11:24:00;;;;;;;6.33;2.33;;;11.40;94.80;;;;;;4979491;28;20266;-87
2022/01/03 11:26:27;;;;;;;3.87;2.17;;;11.40;95.70;;;;;;4972091;28;20564;-88
2022/01/03 11:28:53;;;;;;;4.83;2.73;;;11.40;94.50;;;;;;4991051;28;20429;-88
2022/01/03 11:31:21;;;;;;;6.50;2.70;;;11.50;95.20;;;;;;4978385;28;20220;-88
2022/01/03 11:33:49;;;;;;;6.83;2.90;;;11.50;95.30;;;;;;4978180;28;20621;-87
2022/01/03 11:36:17;;;;;;;6.57;2.80;;;11.40;95.60;;;;;;4978207;28;20195;-88
2022/01/03 11:38:45;;;;;;;4.60;2.90;;;11.40;96.70;;;;;;4978567;28;20716;-88
2022/01/03 11:41:12;;;;;;;6.33;2.57;;;11.60;94.50;;;;;;4975810;28;20253;-87
2022/01/03 11:43:40;;;;;;;5.47;2.77;;;11.60;94.50;;;;;;4978518;28;20228;-88
2022/01/03 11:46:07;;;;;;;7.33;2.87;;;11.70;94.10;;;;;;4977726;28;20236;-87
2022/01/03 11:48:33;;;;;;;4.87;2.27;;;11.70;94.30;;;;;;4976874;28;20220;-87
2022/01/03 11:51:02;;;;;;;9.07;2.70;;;11.70;93.10;;;;;;4980102;28;20227;-87
2022/01/03 11:53:30;;;;;;;8.27;2.83;;;11.80;92.40;;;;;;4975658;28;20204;-87
2022/01/03 11:55:58;;;;;;;6.30;2.80;;;11.90;93.40;;;;;;4981380;28;20199;-87
2022/01/03 11:58:53;;;;;;;6.30;2.93;;;11.90;92.60;;;;;;4979605;28;20295;-88
2022/01/03 12:04:13;;;;;;;5.77;2.73;;;11.80;92.90;;;;;;4976252;28;20205;-87
2022/01/03 12:06:39;;;;;;;6.30;2.73;;;11.90;92.70;;;;;;4977100;28;20683;-88
2022/01/03 12:09:16;;;;;;;5.03;2.60;;;11.90;92.40;;;;;;4971661;28;20456;-88
2022/01/03 12:11:53;;;;;;;5.60;2.80;;;12.00;92.60;;;;;;4980026;28;20226;-88
2022/01/03 12:14:20;;;;;;;5.17;3.33;;;12.10;90.50;;;;;;4978803;28;20860;-88
2022/01/03 12:17:08;;;;;;;5.73;2.97;;;12.10;91.30;;;;;;4978216;28;20199;-88
2022/01/03 12:19:58;;;;;;;8.07;3.57;;;12.10;90.60;;;;;;4978840;28;20224;-88
2022/01/03 12:22:24;;;;;;;7.67;3.37;;;12.00;91.90;;;;;;4969577;28;20197;-88
2022/01/03 12:25:02;;;;;;;7.10;2.80;;;12.00;91.20;;;;;;4990686;28;20228;-88
2022/01/03 12:27:37;;;;;;;7.93;2.50;;;12.10;91.10;;;;;;4978025;28;20192;-87
2022/01/03 12:30:12;;;;;;;6.20;2.87;;;12.00;91.30;;;;;;4972297;28;20217;-88
2022/01/03 12:32:40;;;;;;;8.07;3.27;;;12.00;91.10;;;;;;4974090;28;20270;-87
2022/01/03 12:35:22;;;;;;;6.33;2.87;;;12.20;90.50;;;;;;4979210;28;20551;-89
2022/01/03 12:37:54;;;;;;;7.50;2.57;;;12.10;90.10;;;;;;4987797;28;20198;-89
2022/01/03 12:40:34;;;;;;;8.53;3.13;;;12.00;89.80;;;;;;4983799;28;20262;-87
2022/01/03 12:43:12;;;;;;;6.30;3.03;;;12.00;89.80;;;;;;4981285;28;20184;-87
2022/01/03 12:45:42;;;;;;;6.13;2.93;;;12.00;89.20;;;;;;4966305;28;20662;-88
2022/01/03 12:48:11;;;;;;;5.27;2.77;;;12.00;89.80;;;;;;4980427;28;20267;-87
2022/01/03 12:50:46;;;;;;;4.10;2.80;;;12.00;88.90;;;;;;4978840;28;20218;-87
2022/01/03 12:53:32;;;;;;;6.87;2.97;;;12.10;88.20;;;;;;4966701;28;20194;-87
2022/01/03 12:56:01;;;;;;;4.37;2.60;;;12.10;87.70;;;;;;4977163;28;20335;-87
2022/01/03 12:58:26;;;;;;;7.83;3.20;;;12.10;88.80;;;;;;4978249;28;20219;-87
2022/01/03 13:01:02;;;;;;;8.07;2.60;;;12.00;88.30;;;;;;4981548;28;20220;-88
2022/01/03 13:03:39;;;;;;;5.30;2.67;;;12.10;88.00;;;;;;4978726;28;20183;-89
2022/01/03 13:06:14;;;;;;;6.27;2.60;;;12.30;86.40;;;;;;4984316;28;20221;-87
2022/01/03 13:08:47;;;;;;;11.13;4.87;;;12.30;87.10;;;;;;4977618;28;20188;-88
2022/01/03 13:11:33;;;;;;;5.70;2.70;;;12.40;85.60;;;;;;4980708;28;20211;-88
2022/01/03 13:14:05;;;;;;;8.73;3.20;;;12.50;85.80;;;;;;4974045;28;20220;-88